Charlottetown, Prince Edward Island

1:35 AM AST on February 11, 2016 (GMT -0400)
Charlottetown | | Change Station
CLOSE
Current Station
Airport
Location: Charlottetown,
Elevation: 157 ft
Nearby Weather Stations

Elev 157 ft 46.29 °N, 63.13 °W | Updated 35 minutes ago

Scattered Clouds
Scattered Clouds
14 °F
Feels Like 8 °F
N
4
Wind Variable Wind from West

Today is forecast to be nearly the same temperature as yesterday.

Today
High -- | Low -- °F
--% Chance of Precip.
Yesterday
High -- | Low -- °F
Precip. -- in
Pressure 29.56 in
Visibility 15.0 miles
Clouds Scattered Clouds 9000 ft
Windchill 8 °F
Dew Point 14 °F
Humidity 100%
Rainfall 0.00 in
Snow Depth Not available.
7:22 AM 5:31 PM
Waxing Crescent, 9% visible
METAR CYYG 110500Z 28003KT 15SM SCT090 M10/M10 A2955 RMK AC4 SLP010
Pressure 29.56 in
Visibility 15.0 miles
Clouds Scattered Clouds 9000 ft
Windchill 8 °F
Dew Point 14 °F
Humidity 100%
Rainfall 0.00 in
Snow Depth Not available.
7:22 AM 5:31 PM
Waxing Crescent, 9% visible
METAR CYYG 110500Z 28003KT 15SM SCT090 M10/M10 A2955 RMK AC4 SLP010

10-Day Weather Forecast

No radar image for this location.
×

Almanac

Astronomy

Feb. 11, 2016 Rise Set
Actual Time
Civil Twilight
Nautical Twilight
Astronomical Twilight
Moon
Length of Visible Light
Length of Day
Tomorrow will be .
, % of the Moon is Illuminated

Today's Extremes

Country Highs Country Lows

Community

WunderPhotos

Upload Photos

1,892,023 photos uploaded!

WunderBlog® & News

Nearby

Air Quality

  Air Quality AQ Index Pollutant
Not available.

Snow Depth

Station Depth Elevation

Earthquake Activity

City Distance Mag. Time & Date
Minimum magnitude displayed is 2.5.

Coastal Water Temperatures

Place Temperature

Stations

Nearby Weather Stations

Station Location Temp. Windchill Dew Point Humidity Wind Precip. Elev Updated Type
                   

Watches & Warnings

There are currently no watches in effect.